LICJ Airport Information

Runway Information
Runway 02 Length 6804 ft width 148 ft
Elevation 42 ft Threshold 10 ft Heading 24
Runway 20 Length 6804 ft Width 148 ft
Elevation 22 ft Threshold 10 ft Heading 204
Runway 07 Length 10912 ft width 197 ft
Elevation 33 ft Threshold 404 ft Heading 67
Runway 25 Length 10912 ft Width 197 ft
Elevation 50 ft Threshold 679 ft Heading 247
Airport Frequencies
Type APP Name APP Frequency 120.2 MHZ
Type GND Name RAISI GND Frequency 121.625 MHZ
Type TWR Name RAISI TWR Frequency 119.05 MHZ
Airport Navaids
Type VOR-DME Name Palermo Frequency 112300 KHZ
Type NDB Name Palermo Frequency 356 KHZ
Type VOR-DME Name Raisi Frequency 113000 KHZ
Type NDB Name Raisi Frequency 329 KHZ
Airport Weather Information & NOTAM
ADDS - METARS form results

(2210 UTC 16 June 2021)
Data provider http://aviationweather.gov/metar/data/
 
METAR text: LICJ 162150Z 22005KT CAVOK 22/16 Q1016
Conditions at: LICJ (PALERMO/POINT RA, IT) observed 2150 UTC 16 June 2021
Temperature: 22.0°C (72°F)
Dewpoint: 16.0°C (61°F) [RH = 69%]
Pressure (altimeter): 30.00 inches Hg (1016.0 mb)
Winds: from the SW (220 degrees) at 6 MPH (5 knots; 2.6 m/s)
Visibility: 6 or more miles (10+ km)
Ceiling: ceiling and visibility are OK
Clouds: unknown
Weather: no significant weather observed at this time

METAR text: LICJ 162120Z 21007KT CAVOK 22/16 Q1016
Conditions at: LICJ (PALERMO/POINT RA, IT) observed 2120 UTC 16 June 2021
Temperature: 22.0°C (72°F)
Dewpoint: 16.0°C (61°F) [RH = 69%]
Pressure (altimeter): 30.00 inches Hg (1016.0 mb)
Winds: from the SSW (210 degrees) at 8 MPH (7 knots; 3.6 m/s)
Visibility: 6 or more miles (10+ km)
Ceiling: ceiling and visibility are OK
Clouds: unknown
Weather: no significant weather observed at this time

Forecast for: LICJ (PALERMO/POINT RA, IT)
Text: TAF LICJ 161700Z 1618/1718 VRB05KT 9999 FEW020
Forecast period: 1800 UTC 16 June 2021 to 0800 UTC 17 June 2021
Forecast type: FROM: standard forecast or significant change
Winds: variable direction winds at 6 MPH (5 knots; 2.6 m/s)
Visibility: 6 or more miles (10+ km)
Ceiling: at least 12,000 feet AGL
Clouds: few clouds at 2000 feet AGL
Weather: no significant weather forecast for this period
Text: TEMPO 1700/1706 4000 BR
Forecast period: 0000 to 0600 UTC 17 June 2021
Forecast type: TEMPORARY: The following changes expected for less than half the time period
Visibility: 2.49 miles (4.01 km)
Ceiling: unknown
Clouds: missing
Weather: BR  (mist)
Text: BECMG 1708/1710 04012KT
Forecast period: 0800 to 1800 UTC 17 June 2021
Forecast type: BECOMING: Conditions expected to become as follows by 1000 UTC 17 June 2021
Winds: from the NE (40 degrees) at 14 MPH (12 knots; 6.2 m/s)
Visibility: 6 or more miles (10+ km)
Ceiling: at least 12,000 feet AGL
Clouds: few clouds at 2000 feet AGL
Weather: no significant weather forecast for this period